Terminal Aerodrome Forecast
Issued by NWS

Home | Current Version | Previous Version | Text Only | Print | Product List | Glossary On
Versions: 1 2 3 4 5 6 7 8 9 10 11 12 13 14 15 16 17 18 19 20 21 22
000
FTUS46 KMFR 290545
TAFRBG
TAF
KRBG 290545Z 2906/3006 14003KT 3SM -RA BR SCT020 OVC035
      TEMPO 2906/2908 1SM RA BR SCT005 OVC020
     FM290900 35004KT 2SM -RA BR SCT005 BKN010 OVC020
     FM291800 35004KT P6SM SCT015 OVC030
     FM292000 34005KT P6SM SCT060 BKN150=

USA.gov is the U.S. government's official web portal to all federal, state and local government web resources and services.